Time;durP1;ratioP1;P1;durP2;ratioP2;P2;SDS_P1;SDS_P2;PMS_P1;PMS_P2;Temp;Humidity;BMP_temperature;BMP_pressure;BME280_temperature;BME280_humidity;BME280_pressure;Samples;Min_cycle;Max_cycle;Signal;HPM_P1;HPM_P2
2023/10/06 00:00:19;;;;;;;12.10;5.38;;;;;;;;;;5069673;28;20012;-39
2023/10/06 00:02:45;;;;;;;10.90;4.90;;;;;;;;;;5076720;28;20028;-39
2023/10/06 00:05:12;;;;;;;14.55;5.22;;;;;;;;;;5072728;28;20364;-39
2023/10/06 00:07:40;;;;;;;12.63;5.82;;;;;;;;;;5079715;28;20114;-39
2023/10/06 00:10:14;;;;;;;11.30;5.13;;;;;;;;;;5076843;28;20111;-39
2023/10/06 00:12:39;;;;;;;13.02;5.10;;;;;;;;;;5070640;28;20024;-39
2023/10/06 00:15:08;;;;;;;14.75;5.82;;;;;;;;;;5074570;28;20384;-39
2023/10/06 00:17:35;;;;;;;11.20;5.20;;;;;;;;;;5075578;28;20032;-40
2023/10/06 00:20:00;;;;;;;10.43;5.43;;;;;;;;;;5062047;28;20024;-39
2023/10/06 00:22:26;;;;;;;8.90;5.25;;;;;;;;;;5075242;28;20115;-39
2023/10/06 00:24:55;;;;;;;7.35;3.05;;;;;;;;;;5075801;28;20394;-39
2023/10/06 00:27:29;;;;;;;9.55;5.38;;;;;;;;;;5062872;28;20020;-39
2023/10/06 00:29:55;;;;;;;13.90;6.72;;;;;;;;;;5076583;28;20077;-39
2023/10/06 00:32:27;;;;;;;10.77;5.43;;;;;;;;;;5076161;28;20034;-39
2023/10/06 00:35:11;;;;;;;11.82;5.25;;;;;;;;;;5076412;28;20060;-39
2023/10/06 00:37:38;;;;;;;9.05;5.03;;;;;;;;;;5074014;28;20136;-39
2023/10/06 00:40:10;;;;;;;10.90;5.35;;;;;;;;;;5077116;28;20016;-40
2023/10/06 00:42:37;;;;;;;10.20;5.32;;;;;;;;;;5072908;28;20036;-39
2023/10/06 00:45:05;;;;;;;9.93;4.93;;;;;;;;;;5076134;28;20035;-40
2023/10/06 00:47:38;;;;;;;9.30;4.50;;;;;;;;;;5075045;28;20020;-39
2023/10/06 00:50:05;;;;;;;8.35;4.50;;;;;;;;;;5071085;28;20036;-39
2023/10/06 00:52:33;;;;;;;12.73;5.00;;;;;;;;;;5072526;28;20024;-39
2023/10/06 00:55:02;;;;;;;10.57;5.30;;;;;;;;;;5059652;28;20024;-39
2023/10/06 00:57:28;;;;;;;9.55;5.03;;;;;;;;;;5074093;28;20032;-39
2023/10/06 00:59:55;;;;;;;10.20;4.93;;;;;;;;;;5072550;28;20097;-39
2023/10/06 01:02:21;;;;;;;12.60;5.15;;;;;;;;;;5069912;28;20016;-39
2023/10/06 01:04:52;;;;;;;5.15;2.95;;;;;;;;;;5075112;28;20066;-39
2023/10/06 01:07:17;;;;;;;19.73;4.70;;;;;;;;;;5073755;28;20024;-40
2023/10/06 01:10:06;;;;;;;13.07;4.78;;;;;;;;;;5073134;28;20048;-39
2023/10/06 01:12:32;;;;;;;8.73;4.93;;;;;;;;;;5073951;28;20031;-39
2023/10/06 01:15:17;;;;;;;10.45;4.53;;;;;;;;;;5065933;28;20044;-39
2023/10/06 01:17:48;;;;;;;8.65;4.78;;;;;;;;;;5072711;28;20047;-39
2023/10/06 01:20:30;;;;;;;8.55;4.32;;;;;;;;;;5073770;28;20016;-39
2023/10/06 01:22:56;;;;;;;;;;;;;;;;;;5078267;28;20024;-39
2023/10/06 01:25:22;;;;;;;7.82;4.47;;;;;;;;;;5076117;28;19993;-39
2023/10/06 01:27:50;;;;;;;16.63;5.07;;;;;;;;;;5077804;28;20032;-39
2023/10/06 01:32:44;;;;;;;10.35;4.68;;;;;;;;;;5072196;28;20036;-39
2023/10/06 01:35:13;;;;;;;15.88;5.35;;;;;;;;;;5069931;28;20024;-39
2023/10/06 01:37:45;;;;;;;9.82;5.53;;;;;;;;;;5063275;28;20163;-39
2023/10/06 01:42:54;;;;;;;10.60;5.88;;;;;;;;;;5073625;28;20644;-39
2023/10/06 01:45:22;;;;;;;8.20;4.55;;;;;;;;;;5072308;28;20541;-39
2023/10/06 01:48:22;;;;;;;11.32;4.80;;;;;;;;;;5069356;28;20036;-39
2023/10/06 01:50:41;;;;;;;10.63;4.88;;;;;;;;;;5070827;28;20075;-39
2023/10/06 01:53:07;;;;;;;10.98;5.30;;;;;;;;;;5068395;28;20028;-39
2023/10/06 01:55:37;;;;;;;12.35;5.20;;;;;;;;;;5074779;28;20026;-39
2023/10/06 01:58:04;;;;;;;7.95;3.35;;;;;;;;;;5068992;28;20028;-40
2023/10/06 02:00:32;;;;;;;8.63;4.72;;;;;;;;;;5071972;28;20028;-39
2023/10/06 02:02:58;;;;;;;10.02;4.68;;;;;;;;;;5070411;28;20056;-39
2023/10/06 02:05:23;;;;;;;11.45;4.88;;;;;;;;;;5069190;28;20108;-40
2023/10/06 02:07:49;;;;;;;10.53;5.00;;;;;;;;;;5074229;28;21049;-39
2023/10/06 02:10:18;;;;;;;13.20;4.65;;;;;;;;;;5073202;28;20278;-39
2023/10/06 02:12:44;;;;;;;11.38;5.40;;;;;;;;;;5076320;28;20025;-39
2023/10/06 02:15:10;;;;;;;9.52;6.00;;;;;;;;;;5071514;28;20038;-39
2023/10/06 02:17:40;;;;;;;9.93;3.45;;;;;;;;;;5069733;28;20059;-39
2023/10/06 02:20:29;;;;;;;10.30;4.75;;;;;;;;;;5076302;28;20020;-39
2023/10/06 02:22:57;;;;;;;10.88;5.65;;;;;;;;;;5059796;28;20914;-39
2023/10/06 02:25:23;;;;;;;10.07;4.93;;;;;;;;;;5073350;28;20050;-39
2023/10/06 02:27:50;;;;;;;9.18;4.57;;;;;;;;;;5072426;28;20055;-39
2023/10/06 02:30:15;;;;;;;13.15;5.55;;;;;;;;;;5069219;28;20087;-39
2023/10/06 02:32:43;;;;;;;6.75;3.55;;;;;;;;;;5075158;28;20023;-39
2023/10/06 02:35:09;;;;;;;12.55;6.45;;;;;;;;;;5072119;28;20032;-39
2023/10/06 02:37:34;;;;;;;11.35;5.20;;;;;;;;;;5072730;28;20078;-39
2023/10/06 02:39:59;;;;;;;8.43;5.53;;;;;;;;;;5076711;28;20045;-39
2023/10/06 02:42:25;;;;;;;12.82;5.95;;;;;;;;;;5071124;28;20354;-39
2023/10/06 02:44:51;;;;;;;8.82;4.78;;;;;;;;;;5071967;28;20048;-39
2023/10/06 02:47:17;;;;;;;17.23;5.38;;;;;;;;;;5072599;28;20028;-39
2023/10/06 02:49:50;;;;;;;11.23;5.00;;;;;;;;;;5073024;28;20055;-39
2023/10/06 02:52:16;;;;;;;9.23;5.05;;;;;;;;;;5072190;28;20023;-40
2023/10/06 02:55:32;;;;;;;9.98;5.15;;;;;;;;;;5073969;28;20082;-39
2023/10/06 02:57:35;;;;;;;12.13;6.20;;;;;;;;;;5065211;28;20094;-39
2023/10/06 03:05:49;;;;;;;18.08;6.68;;;;;;;;;;5034393;28;20539;-39
2023/10/06 03:08:18;;;;;;;11.95;6.03;;;;;;;;;;5071413;28;20414;-39
2023/10/06 03:10:44;;;;;;;7.55;3.47;;;;;;;;;;5068510;28;20032;-39
2023/10/06 03:13:15;;;;;;;13.63;6.80;;;;;;;;;;5074067;28;20043;-39
2023/10/06 03:15:46;;;;;;;13.68;6.30;;;;;;;;;;5068601;28;20112;-39
2023/10/06 03:18:15;;;;;;;15.15;7.60;;;;;;;;;;5069034;28;20032;-39
2023/10/06 03:20:46;;;;;;;18.23;6.70;;;;;;;;;;5058843;28;20032;-39
2023/10/06 03:23:25;;;;;;;11.70;6.30;;;;;;;;;;5067056;28;22489;-39
2023/10/06 03:25:53;;;;;;;16.63;6.05;;;;;;;;;;5076579;28;20012;-39
2023/10/06 03:28:19;;;;;;;14.93;6.00;;;;;;;;;;5072736;28;20024;-39
2023/10/06 03:30:49;;;;;;;13.70;5.93;;;;;;;;;;5074871;28;20375;-39
2023/10/06 03:33:15;;;;;;;17.10;6.70;;;;;;;;;;5073830;28;20575;-39
2023/10/06 03:35:54;;;;;;;12.18;5.18;;;;;;;;;;5057285;28;20024;-39
2023/10/06 03:46:08;;;;;;;12.95;5.30;;;;;;;;;;5059853;28;20089;-39
2023/10/06 03:48:34;;;;;;;11.82;5.43;;;;;;;;;;5069101;28;20043;-39
2023/10/06 03:50:59;;;;;;;16.85;6.18;;;;;;;;;;5076252;28;20024;-39
2023/10/06 03:53:25;;;;;;;14.10;6.32;;;;;;;;;;5073771;28;21171;-39
2023/10/06 03:55:50;;;;;;;12.30;5.70;;;;;;;;;;5072486;28;20553;-39
2023/10/06 03:58:16;;;;;;;16.73;6.60;;;;;;;;;;5075060;28;20051;-39
2023/10/06 04:00:48;;;;;;;10.07;5.57;;;;;;;;;;5073956;28;20795;-39
2023/10/06 04:03:14;;;;;;;14.27;5.57;;;;;;;;;;5074555;28;20021;-39
2023/10/06 04:05:44;;;;;;;12.95;5.78;;;;;;;;;;5073992;28;20351;-39
2023/10/06 04:08:15;;;;;;;9.38;5.38;;;;;;;;;;5067670;28;20035;-39
2023/10/06 04:10:42;;;;;;;16.77;5.75;;;;;;;;;;5076414;28;20115;-39
2023/10/06 04:13:08;;;;;;;13.65;5.82;;;;;;;;;;5075335;28;20032;-39
2023/10/06 04:15:43;;;;;;;10.05;5.47;;;;;;;;;;5072810;28;20028;-39
2023/10/06 04:18:10;;;;;;;10.35;5.93;;;;;;;;;;5075208;28;20109;-39
2023/10/06 04:20:42;;;;;;;16.45;6.05;;;;;;;;;;5074143;28;20024;-39
2023/10/06 04:23:08;;;;;;;10.75;5.60;;;;;;;;;;5072545;28;20016;-39
2023/10/06 04:25:37;;;;;;;14.82;6.05;;;;;;;;;;5068185;28;20023;-39
2023/10/06 04:28:14;;;;;;;11.05;6.10;;;;;;;;;;5071258;28;20043;-39
2023/10/06 04:30:41;;;;;;;13.63;7.05;;;;;;;;;;5071415;28;20103;-39
2023/10/06 04:33:09;;;;;;;12.80;6.57;;;;;;;;;;5073537;28;20024;-39
2023/10/06 04:35:35;;;;;;;13.20;6.32;;;;;;;;;;5070324;28;20158;-39
2023/10/06 04:38:05;;;;;;;16.77;6.53;;;;;;;;;;5068023;28;20035;-39
2023/10/06 04:40:32;;;;;;;17.13;7.05;;;;;;;;;;5071256;28;20025;-39
2023/10/06 04:42:58;;;;;;;12.75;6.13;;;;;;;;;;5074017;28;20012;-39
2023/10/06 04:45:27;;;;;;;16.50;7.25;;;;;;;;;;5070683;28;20029;-39
2023/10/06 04:47:55;;;;;;;18.02;7.63;;;;;;;;;;5076820;28;20382;-40
2023/10/06 04:50:21;;;;;;;14.02;6.88;;;;;;;;;;5073674;28;20056;-39
2023/10/06 04:52:46;;;;;;;18.42;6.82;;;;;;;;;;5073147;28;20182;-39
2023/10/06 04:55:13;;;;;;;17.55;8.00;;;;;;;;;;5072627;28;20036;-39
2023/10/06 04:57:42;;;;;;;16.70;7.80;;;;;;;;;;5075603;28;20024;-39
2023/10/06 05:00:21;;;;;;;14.32;6.90;;;;;;;;;;5070094;28;20513;-39
2023/10/06 05:02:47;;;;;;;20.73;7.47;;;;;;;;;;5076590;28;20142;-39
2023/10/06 05:05:22;;;;;;;15.70;7.68;;;;;;;;;;5075046;28;20028;-39
2023/10/06 05:07:48;;;;;;;16.95;7.80;;;;;;;;;;5055535;28;20033;-39
2023/10/06 05:10:14;;;;;;;16.98;6.93;;;;;;;;;;5070780;28;20046;-39
2023/10/06 05:12:42;;;;;;;16.38;8.20;;;;;;;;;;5073218;28;20043;-39
2023/10/06 05:15:08;;;;;;;19.35;8.02;;;;;;;;;;5073009;28;20021;-39
2023/10/06 05:17:34;;;;;;;20.75;8.18;;;;;;;;;;5068807;28;20066;-39
2023/10/06 05:19:59;;;;;;;15.02;7.78;;;;;;;;;;5073798;28;20027;-39
2023/10/06 05:22:25;;;;;;;16.30;9.60;;;;;;;;;;5074586;28;20496;-39
2023/10/06 05:24:50;;;;;;;20.73;8.45;;;;;;;;;;5071201;28;20025;-39
2023/10/06 05:27:19;;;;;;;16.23;7.25;;;;;;;;;;5069593;28;20020;-39
2023/10/06 05:29:45;;;;;;;15.73;7.60;;;;;;;;;;5074485;28;20036;-39
2023/10/06 05:32:11;;;;;;;18.20;9.68;;;;;;;;;;5071826;28;20024;-39
2023/10/06 05:34:40;;;;;;;20.02;9.15;;;;;;;;;;5072945;28;20032;-39
2023/10/06 05:37:08;;;;;;;20.48;9.95;;;;;;;;;;5073306;28;20153;-39
2023/10/06 05:39:33;;;;;;;22.90;9.00;;;;;;;;;;5070921;28;20031;-40
2023/10/06 05:41:59;;;;;;;17.80;8.70;;;;;;;;;;5072646;28;20039;-39
2023/10/06 05:44:24;;;;;;;18.90;8.57;;;;;;;;;;5071905;28;20029;-39
2023/10/06 05:46:49;;;;;;;19.57;9.67;;;;;;;;;;5075645;28;20277;-39
2023/10/06 05:49:20;;;;;;;22.73;9.87;;;;;;;;;;5074276;28;20063;-39
2023/10/06 05:51:46;;;;;;;18.23;9.70;;;;;;;;;;5079000;28;20421;-39
2023/10/06 05:54:18;;;;;;;18.80;9.90;;;;;;;;;;5068618;28;20020;-39
2023/10/06 05:56:45;;;;;;;17.85;8.52;;;;;;;;;;5073918;28;20036;-39
2023/10/06 05:59:12;;;;;;;20.42;9.07;;;;;;;;;;5075346;28;20021;-40
2023/10/06 06:01:41;;;;;;;17.45;8.48;;;;;;;;;;5073494;28;20016;-40
2023/10/06 06:04:09;;;;;;;17.95;9.77;;;;;;;;;;5079068;28;20490;-39
2023/10/06 06:06:36;;;;;;;21.50;9.77;;;;;;;;;;5078169;28;22185;-39
2023/10/06 06:09:04;;;;;;;16.63;9.27;;;;;;;;;;5082438;28;20032;-39
2023/10/06 06:11:29;;;;;;;19.05;8.98;;;;;;;;;;5075949;28;20032;-40
2023/10/06 06:13:57;;;;;;;20.60;9.43;;;;;;;;;;5074455;28;20069;-39
2023/10/06 06:16:22;;;;;;;17.10;8.35;;;;;;;;;;5074032;28;20105;-39
2023/10/06 06:18:47;;;;;;;19.48;9.55;;;;;;;;;;5071819;28;20375;-39
2023/10/06 06:21:12;;;;;;;19.00;8.93;;;;;;;;;;5078324;28;20021;-39
2023/10/06 06:23:38;;;;;;;21.13;9.07;;;;;;;;;;5075961;28;20263;-39
2023/10/06 06:26:04;;;;;;;17.42;8.77;;;;;;;;;;5069628;28;20329;-39
2023/10/06 06:28:29;;;;;;;21.23;9.40;;;;;;;;;;5068509;28;20032;-39
2023/10/06 06:30:54;;;;;;;17.73;9.55;;;;;;;;;;5076701;28;20054;-39
2023/10/06 06:33:22;;;;;;;21.13;10.05;;;;;;;;;;5074382;28;20110;-39
2023/10/06 06:35:48;;;;;;;20.48;9.80;;;;;;;;;;5075527;28;20028;-39
2023/10/06 06:38:13;;;;;;;17.52;9.07;;;;;;;;;;5079714;28;20039;-40
2023/10/06 06:40:39;;;;;;;22.02;10.75;;;;;;;;;;5075961;28;20131;-39
2023/10/06 06:43:09;;;;;;;21.73;10.50;;;;;;;;;;5078327;28;20119;-39
2023/10/06 06:45:39;;;;;;;26.08;12.30;;;;;;;;;;5074835;28;20016;-39
2023/10/06 06:48:09;;;;;;;27.00;12.52;;;;;;;;;;5072558;28;20074;-39
2023/10/06 06:50:36;;;;;;;23.33;11.18;;;;;;;;;;5068596;28;20012;-39
2023/10/06 06:53:01;;;;;;;25.27;12.40;;;;;;;;;;5056704;28;20023;-39
2023/10/06 06:55:26;;;;;;;27.08;13.52;;;;;;;;;;5058604;28;20040;-39
2023/10/06 06:57:53;;;;;;;26.50;12.57;;;;;;;;;;5075703;28;20402;-39
2023/10/06 07:00:21;;;;;;;27.65;14.32;;;;;;;;;;5074960;28;20294;-40
2023/10/06 07:02:47;;;;;;;34.00;14.27;;;;;;;;;;5076135;28;20026;-39
2023/10/06 07:05:13;;;;;;;32.45;14.40;;;;;;;;;;5065355;28;20028;-39
2023/10/06 07:07:43;;;;;;;28.80;14.85;;;;;;;;;;5075902;28;20036;-39
2023/10/06 07:10:11;;;;;;;26.58;13.70;;;;;;;;;;5076428;28;20021;-39
2023/10/06 07:12:37;;;;;;;24.23;13.73;;;;;;;;;;5059282;28;20040;-39
2023/10/06 07:15:02;;;;;;;31.90;14.27;;;;;;;;;;5076939;28;20024;-39
2023/10/06 07:17:28;;;;;;;26.42;15.95;;;;;;;;;;5067708;28;20016;-39
2023/10/06 07:19:53;;;;;;;29.27;15.30;;;;;;;;;;5078559;28;20023;-39
2023/10/06 07:22:22;;;;;;;32.10;15.90;;;;;;;;;;5075774;28;20021;-39
2023/10/06 07:24:49;;;;;;;31.25;15.93;;;;;;;;;;5078110;28;20314;-39
2023/10/06 07:27:14;;;;;;;30.13;15.55;;;;;;;;;;5073844;28;20028;-39
2023/10/06 07:29:40;;;;;;;31.90;14.43;;;;;;;;;;5068311;28;20032;-39
2023/10/06 07:32:05;;;;;;;27.70;14.57;;;;;;;;;;5074286;28;20535;-39
2023/10/06 07:34:30;;;;;;;30.73;14.40;;;;;;;;;;5074538;28;20275;-39
2023/10/06 07:36:56;;;;;;;30.98;16.63;;;;;;;;;;5075560;28;20116;-39
2023/10/06 07:39:21;;;;;;;31.40;14.83;;;;;;;;;;5076694;28;20112;-39
2023/10/06 07:41:46;;;;;;;27.23;15.35;;;;;;;;;;5080148;28;20266;-39
2023/10/06 07:44:14;;;;;;;27.20;14.20;;;;;;;;;;5074275;28;20394;-39
2023/10/06 07:46:39;;;;;;;28.58;14.93;;;;;;;;;;5075424;28;20262;-39
2023/10/06 07:49:05;;;;;;;28.40;14.70;;;;;;;;;;5069135;28;20489;-39
2023/10/06 07:51:33;;;;;;;26.05;14.20;;;;;;;;;;5075915;28;20129;-39
2023/10/06 07:53:59;;;;;;;26.38;14.05;;;;;;;;;;5064484;28;20032;-39
2023/10/06 07:56:26;;;;;;;27.48;12.85;;;;;;;;;;5072462;28;20050;-39
2023/10/06 07:58:52;;;;;;;27.38;15.25;;;;;;;;;;5076676;28;20012;-39
2023/10/06 08:01:18;;;;;;;30.23;15.10;;;;;;;;;;5077535;28;20392;-40
2023/10/06 08:03:45;;;;;;;29.42;15.18;;;;;;;;;;5077021;28;20032;-40
2023/10/06 08:06:11;;;;;;;28.13;13.25;;;;;;;;;;5063447;28;20016;-39
2023/10/06 08:08:37;;;;;;;30.48;14.10;;;;;;;;;;5078153;28;20077;-39
2023/10/06 08:11:02;;;;;;;28.77;15.25;;;;;;;;;;5077816;28;20032;-40
2023/10/06 08:13:29;;;;;;;25.27;15.35;;;;;;;;;;5067865;28;20019;-39
2023/10/06 08:15:56;;;;;;;31.10;14.25;;;;;;;;;;5079709;28;20382;-39
2023/10/06 08:18:21;;;;;;;25.63;14.20;;;;;;;;;;5064278;28;20022;-39
2023/10/06 08:20:46;;;;;;;25.63;12.23;;;;;;;;;;5072442;28;20882;-39
2023/10/06 08:23:15;;;;;;;30.23;14.10;;;;;;;;;;5078305;28;20266;-39
2023/10/06 08:25:41;;;;;;;25.20;13.13;;;;;;;;;;5078496;28;20267;-39
2023/10/06 08:28:07;;;;;;;21.50;12.57;;;;;;;;;;5081045;28;20039;-39
2023/10/06 08:30:32;;;;;;;19.55;11.88;;;;;;;;;;5067837;28;20031;-39
2023/10/06 08:32:59;;;;;;;23.20;11.32;;;;;;;;;;5074037;28;20020;-39
2023/10/06 08:35:24;;;;;;;22.85;12.30;;;;;;;;;;5075502;28;20024;-39
2023/10/06 08:37:56;;;;;;;13.38;7.75;;;;;;;;;;5076993;28;20031;-39
2023/10/06 08:40:26;;;;;;;24.05;12.27;;;;;;;;;;5083103;28;20139;-39
2023/10/06 08:42:56;;;;;;;20.95;11.38;;;;;;;;;;5079297;28;20471;-39
2023/10/06 08:45:25;;;;;;;17.63;9.02;;;;;;;;;;5078646;28;20035;-39
2023/10/06 08:48:01;;;;;;;20.88;11.60;;;;;;;;;;5078990;28;20084;-39
2023/10/06 08:50:27;;;;;;;23.60;10.82;;;;;;;;;;5076094;28;20032;-39
2023/10/06 08:52:53;;;;;;;17.38;8.68;;;;;;;;;;5075753;28;20399;-39
2023/10/06 08:55:19;;;;;;;19.05;9.45;;;;;;;;;;5084451;28;20028;-39
2023/10/06 08:57:48;;;;;;;24.60;8.52;;;;;;;;;;5082182;28;20039;-39
2023/10/06 09:00:17;;;;;;;14.43;8.18;;;;;;;;;;5072801;28;20101;-39
2023/10/06 09:02:44;;;;;;;14.13;7.85;;;;;;;;;;5080055;28;20021;-39
2023/10/06 09:05:13;;;;;;;15.05;7.25;;;;;;;;;;5080556;28;20104;-39
2023/10/06 09:07:39;;;;;;;17.23;6.93;;;;;;;;;;5074445;28;20028;-39
2023/10/06 09:10:19;;;;;;;11.35;6.80;;;;;;;;;;5081032;28;20019;-39
2023/10/06 09:12:57;;;;;;;11.77;7.07;;;;;;;;;;5075258;28;20024;-39
2023/10/06 09:15:22;;;;;;;13.18;6.65;;;;;;;;;;5081186;28;20474;-39
2023/10/06 09:17:47;;;;;;;24.25;8.82;;;;;;;;;;5075833;28;20067;-39
2023/10/06 09:20:13;;;;;;;13.30;7.00;;;;;;;;;;5078684;28;20048;-40
2023/10/06 09:22:45;;;;;;;10.20;6.68;;;;;;;;;;5076826;28;20118;-39
2023/10/06 09:25:10;;;;;;;18.70;9.20;;;;;;;;;;5076865;28;21381;-39
2023/10/06 09:27:37;;;;;;;14.60;6.83;;;;;;;;;;5074825;28;20050;-39
2023/10/06 09:30:10;;;;;;;14.32;6.40;;;;;;;;;;5072475;28;20279;-39
2023/10/06 09:32:36;;;;;;;12.23;7.07;;;;;;;;;;5078021;28;20690;-39
2023/10/06 09:35:17;;;;;;;12.38;6.20;;;;;;;;;;5079140;28;20028;-39
2023/10/06 09:37:42;;;;;;;26.77;7.47;;;;;;;;;;5076050;28;20114;-39
2023/10/06 09:40:18;;;;;;;17.23;7.53;;;;;;;;;;5078300;28;20017;-39
2023/10/06 09:42:46;;;;;;;19.85;6.78;;;;;;;;;;5077856;28;20298;-39
2023/10/06 09:45:15;;;;;;;18.88;7.57;;;;;;;;;;5077795;28;20032;-39
2023/10/06 09:47:46;;;;;;;16.25;7.22;;;;;;;;;;5072638;28;20116;-39
2023/10/06 09:50:13;;;;;;;16.30;6.78;;;;;;;;;;5075539;28;20020;-40
2023/10/06 09:52:42;;;;;;;19.45;7.57;;;;;;;;;;5073274;28;20402;-39
2023/10/06 09:55:08;;;;;;;12.80;7.30;;;;;;;;;;5078092;28;20055;-39
2023/10/06 09:57:34;;;;;;;16.75;7.57;;;;;;;;;;5057299;28;20052;-40
2023/10/06 10:00:02;;;;;;;24.23;7.43;;;;;;;;;;5079321;28;20023;-39
2023/10/06 10:02:29;;;;;;;16.58;7.32;;;;;;;;;;5059309;28;20039;-39
2023/10/06 10:04:59;;;;;;;15.13;7.35;;;;;;;;;;5080111;28;20016;-40
2023/10/06 10:07:25;;;;;;;11.45;8.10;;;;;;;;;;5069325;28;20100;-39
2023/10/06 10:09:52;;;;;;;13.10;6.68;;;;;;;;;;5080946;28;20030;-40
2023/10/06 10:12:56;;;;;;;14.48;7.75;;;;;;;;;;5077744;28;20031;-39
2023/10/06 10:15:32;;;;;;;19.40;6.70;;;;;;;;;;5021318;28;20037;-40
2023/10/06 10:18:08;;;;;;;9.88;6.35;;;;;;;;;;5015521;28;20018;-39
2023/10/06 10:20:34;;;;;;;8.60;1.33;;;;;;;;;;5054100;28;20745;-39
2023/10/06 10:23:03;;;;;;;17.83;6.32;;;;;;;;;;5076230;28;20123;-39
2023/10/06 10:25:34;;;;;;;17.08;5.50;;;;;;;;;;5075601;28;20028;-39
2023/10/06 10:28:27;;;;;;;167.00;35.55;;;;;;;;;;5074214;28;20099;-39
2023/10/06 10:30:56;;;;;;;13.30;5.47;;;;;;;;;;5072635;28;20062;-39
2023/10/06 10:33:25;;;;;;;12.13;4.47;;;;;;;;;;5077913;28;20020;-39
2023/10/06 10:36:09;;;;;;;26.02;7.22;;;;;;;;;;5079117;28;20372;-39
2023/10/06 10:38:34;;;;;;;12.32;4.75;;;;;;;;;;5078014;28;20036;-39
2023/10/06 10:41:01;;;;;;;9.18;4.60;;;;;;;;;;5078093;28;20021;-39
2023/10/06 10:43:27;;;;;;;10.80;4.85;;;;;;;;;;5074877;28;20032;-39
2023/10/06 10:45:57;;;;;;;8.70;4.70;;;;;;;;;;5058820;28;20016;-41
2023/10/06 10:48:31;;;;;;;8.10;4.15;;;;;;;;;;5080276;28;20027;-37
2023/10/06 10:51:00;;;;;;;10.88;3.70;;;;;;;;;;5076452;28;20497;-37
2023/10/06 10:53:34;;;;;;;6.43;3.88;;;;;;;;;;5075240;28;20039;-37
2023/10/06 10:56:01;;;;;;;9.00;3.72;;;;;;;;;;5069757;28;20051;-39
2023/10/06 10:58:41;;;;;;;9.90;3.47;;;;;;;;;;5073170;28;20035;-39
2023/10/06 11:01:32;;;;;;;7.30;2.63;;;;;;;;;;5074674;28;20047;-39
2023/10/06 11:04:18;;;;;;;7.68;2.80;;;;;;;;;;5076310;28;20016;-39
2023/10/06 11:06:48;;;;;;;7.10;2.65;;;;;;;;;;5074925;28;20510;-40
2023/10/06 11:09:29;;;;;;;6.05;2.17;;;;;;;;;;5074965;28;20497;-40
2023/10/06 11:12:03;;;;;;;7.80;3.20;;;;;;;;;;5076063;28;20024;-39
2023/10/06 11:14:29;;;;;;;9.55;4.22;;;;;;;;;;5073972;28;20035;-39
2023/10/06 11:17:02;;;;;;;8.75;3.05;;;;;;;;;;5069949;28;20422;-39
2023/10/06 11:19:29;;;;;;;5.85;2.53;;;;;;;;;;5071904;28;20028;-40
2023/10/06 11:21:55;;;;;;;4.53;2.13;;;;;;;;;;5078663;28;20378;-40
2023/10/06 11:24:27;;;;;;;5.85;2.33;;;;;;;;;;5073249;28;20033;-42
2023/10/06 11:26:53;;;;;;;4.95;2.35;;;;;;;;;;5076286;28;20378;-40
2023/10/06 11:29:30;;;;;;;7.63;2.28;;;;;;;;;;5075795;28;20479;-39
2023/10/06 11:31:57;;;;;;;5.20;2.38;;;;;;;;;;5080486;28;20016;-40
2023/10/06 11:34:24;;;;;;;13.57;2.97;;;;;;;;;;5072689;28;28171;-38
2023/10/06 11:36:52;;;;;;;5.30;2.50;;;;;;;;;;5074939;28;20017;-37
2023/10/06 11:39:18;;;;;;;10.38;2.55;;;;;;;;;;5077772;28;20491;-38
2023/10/06 11:41:43;;;;;;;7.60;2.83;;;;;;;;;;5079542;28;20036;-37
2023/10/06 11:44:09;;;;;;;7.47;3.45;;;;;;;;;;5081560;28;20017;-38
2023/10/06 11:46:52;;;;;;;5.53;2.63;;;;;;;;;;5073095;28;20543;-37
2023/10/06 11:49:20;;;;;;;5.38;2.67;;;;;;;;;;5072269;28;20270;-38
2023/10/06 11:51:45;;;;;;;8.50;2.70;;;;;;;;;;5076390;28;20115;-38
2023/10/06 11:54:11;;;;;;;4.85;2.08;;;;;;;;;;5078094;28;20067;-37
2023/10/06 11:56:49;;;;;;;7.30;2.83;;;;;;;;;;5074697;28;20039;-38
2023/10/06 11:59:22;;;;;;;8.52;3.15;;;;;;;;;;5081370;28;20013;-37
2023/10/06 12:01:47;;;;;;;7.75;2.22;;;;;;;;;;5080062;28;20066;-40
2023/10/06 12:04:30;;;;;;;6.47;3.17;;;;;;;;;;5080467;28;20040;-39
2023/10/06 12:06:55;;;;;;;4.80;2.30;;;;;;;;;;5077978;28;20073;-39
2023/10/06 12:09:24;;;;;;;6.20;2.65;;;;;;;;;;5078564;28;20063;-40
2023/10/06 12:11:50;;;;;;;6.75;2.50;;;;;;;;;;5082708;28;20016;-39
2023/10/06 12:14:15;;;;;;;7.57;2.60;;;;;;;;;;5075134;28;20036;-40
2023/10/06 12:16:44;;;;;;;8.50;2.03;;;;;;;;;;5079646;28;20513;-40
2023/10/06 12:19:11;;;;;;;12.48;3.05;;;;;;;;;;5082588;28;20077;-40
2023/10/06 12:21:36;;;;;;;8.52;2.50;;;;;;;;;;5078209;28;20525;-39
2023/10/06 12:24:01;;;;;;;7.75;2.45;;;;;;;;;;5081084;28;20055;-39
2023/10/06 12:26:28;;;;;;;8.23;2.40;;;;;;;;;;5075367;28;20027;-40
2023/10/06 12:28:54;;;;;;;5.25;2.20;;;;;;;;;;5079358;28;20024;-40
2023/10/06 12:31:19;;;;;;;7.43;2.08;;;;;;;;;;5073330;28;20377;-40
2023/10/06 12:33:45;;;;;;;6.40;2.60;;;;;;;;;;5073140;28;20651;-39
2023/10/06 12:36:12;;;;;;;4.80;2.35;;;;;;;;;;5080406;28;20312;-37
2023/10/06 12:38:39;;;;;;;8.75;2.10;;;;;;;;;;5079392;28;20085;-38
2023/10/06 12:41:06;;;;;;;7.38;2.45;;;;;;;;;;5080992;28;20028;-38
2023/10/06 12:43:35;;;;;;;6.60;1.95;;;;;;;;;;5079813;28;20028;-38
2023/10/06 12:46:03;;;;;;;8.55;2.42;;;;;;;;;;5077953;28;20024;-37
2023/10/06 12:48:30;;;;;;;7.70;2.25;;;;;;;;;;5079874;28;20029;-38
2023/10/06 12:50:55;;;;;;;8.23;2.88;;;;;;;;;;5076848;28;20082;-37
2023/10/06 12:53:21;;;;;;;6.45;1.92;;;;;;;;;;5079136;28;20009;-38
2023/10/06 12:55:56;;;;;;;9.05;1.98;;;;;;;;;;5082338;28;20024;-37
2023/10/06 12:58:22;;;;;;;6.38;2.40;;;;;;;;;;5078831;28;20115;-38
2023/10/06 13:00:47;;;;;;;6.82;2.72;;;;;;;;;;5066560;28;20100;-38
2023/10/06 13:03:18;;;;;;;5.00;2.37;;;;;;;;;;5078448;28;20028;-38
2023/10/06 13:05:43;;;;;;;8.53;2.53;;;;;;;;;;5074869;28;20375;-37
2023/10/06 13:08:09;;;;;;;6.55;2.30;;;;;;;;;;5076205;28;20027;-37
2023/10/06 13:10:35;;;;;;;7.18;2.13;;;;;;;;;;5074173;28;20656;-37
2023/10/06 13:13:06;;;;;;;8.68;2.17;;;;;;;;;;5073500;28;20040;-37
2023/10/06 13:15:31;;;;;;;5.03;1.50;;;;;;;;;;5073743;28;20028;-38
2023/10/06 13:17:57;;;;;;;7.80;1.75;;;;;;;;;;5075516;28;20036;-37
2023/10/06 13:20:23;;;;;;;9.30;2.70;;;;;;;;;;5064554;28;20103;-37
2023/10/06 13:22:49;;;;;;;6.13;2.58;;;;;;;;;;5067840;28;20736;-37
2023/10/06 13:25:14;;;;;;;7.97;2.20;;;;;;;;;;5078518;28;20758;-38
2023/10/06 13:27:41;;;;;;;6.60;1.90;;;;;;;;;;5079427;28;20067;-38
2023/10/06 13:30:12;;;;;;;6.15;2.30;;;;;;;;;;5077332;28;20020;-38
2023/10/06 13:32:38;;;;;;;6.68;2.13;;;;;;;;;;5080393;28;20024;-38
2023/10/06 13:35:11;;;;;;;6.20;2.30;;;;;;;;;;5077393;28;20111;-38
2023/10/06 13:37:40;;;;;;;5.25;1.80;;;;;;;;;;5076732;28;20021;-37
2023/10/06 13:40:10;;;;;;;8.60;2.20;;;;;;;;;;5073768;28;20696;-38
2023/10/06 13:42:35;;;;;;;7.32;1.90;;;;;;;;;;5074611;28;20027;-38
2023/10/06 13:45:00;;;;;;;6.20;3.38;;;;;;;;;;5077913;28;20013;-38
2023/10/06 13:47:26;;;;;;;5.72;1.80;;;;;;;;;;5074573;28;20024;-37
2023/10/06 13:49:54;;;;;;;3.83;1.83;;;;;;;;;;5079737;28;20024;-39
2023/10/06 13:52:19;;;;;;;10.75;2.10;;;;;;;;;;5071710;28;20031;-38
2023/10/06 13:54:44;;;;;;;4.00;1.95;;;;;;;;;;5075537;28;20039;-37
2023/10/06 13:57:10;;;;;;;5.05;1.58;;;;;;;;;;5059441;28;20038;-38
2023/10/06 13:59:35;;;;;;;5.17;1.60;;;;;;;;;;5076277;28;20021;-37
2023/10/06 14:02:01;;;;;;;8.55;1.98;;;;;;;;;;5076115;28;20262;-38
2023/10/06 14:04:26;;;;;;;6.18;1.60;;;;;;;;;;5071579;28;20613;-38
2023/10/06 14:06:52;;;;;;;4.90;1.90;;;;;;;;;;5058133;28;20021;-38
2023/10/06 14:09:23;;;;;;;10.68;2.42;;;;;;;;;;5077645;28;20272;-37
2023/10/06 14:11:52;;;;;;;6.30;2.23;;;;;;;;;;5076838;28;20103;-38
2023/10/06 14:14:35;;;;;;;5.22;1.80;;;;;;;;;;5081097;28;20441;-37
2023/10/06 14:17:02;;;;;;;8.18;2.88;;;;;;;;;;5080024;28;20474;-38
2023/10/06 14:19:27;;;;;;;6.18;2.45;;;;;;;;;;5075831;28;20451;-38
2023/10/06 14:21:53;;;;;;;5.33;1.80;;;;;;;;;;5073398;28;20511;-38
2023/10/06 14:24:18;;;;;;;4.85;1.67;;;;;;;;;;5075887;28;20776;-38
2023/10/06 14:26:44;;;;;;;8.07;1.92;;;;;;;;;;5074697;28;20052;-38
2023/10/06 14:29:09;;;;;;;5.25;2.00;;;;;;;;;;5082366;28;20106;-38
2023/10/06 14:31:37;;;;;;;4.30;2.03;;;;;;;;;;5076247;28;20353;-38
2023/10/06 14:34:36;;;;;;;10.63;2.60;;;;;;;;;;5081390;28;20532;-38
2023/10/06 14:37:11;;;;;;;4.22;1.75;;;;;;;;;;5079623;28;20552;-38
2023/10/06 14:47:48;;;;;;;13.23;2.20;;;;;;;;;;5076027;28;20059;-38
2023/10/06 14:50:14;;;;;;;5.73;2.40;;;;;;;;;;5077646;28;20398;-37
2023/10/06 14:52:40;;;;;;;6.63;2.33;;;;;;;;;;5074859;28;20122;-38
2023/10/06 14:55:09;;;;;;;7.28;2.45;;;;;;;;;;5077812;28;20085;-37
2023/10/06 14:57:34;;;;;;;4.97;2.40;;;;;;;;;;5074796;28;20051;-38
2023/10/06 15:00:00;;;;;;;10.07;3.00;;;;;;;;;;5073317;28;20048;-37
2023/10/06 15:02:26;;;;;;;5.57;2.65;;;;;;;;;;5075033;28;20065;-38
2023/10/06 15:04:51;;;;;;;7.27;2.87;;;;;;;;;;5078195;28;20071;-37
2023/10/06 15:07:16;;;;;;;5.87;2.63;;;;;;;;;;5070623;28;20279;-38